createdAt,value
2023-05-05T00:00:14.678Z,15.5883
2023-05-05T00:01:15.491Z,15.5034
2023-05-05T00:02:15.875Z,15.4704
2023-05-05T00:03:17.739Z,15.4494
2023-05-05T00:04:22.483Z,15.4255
2023-05-05T00:05:24.980Z,15.4003
2023-05-05T00:06:25.517Z,15.4837
2023-05-05T00:07:27.448Z,15.6892
2023-05-05T00:08:29.352Z,15.7310
2023-05-05T00:09:30.363Z,15.3722
2023-05-05T00:10:32.255Z,15.3149
2023-05-05T00:11:34.424Z,15.2019
2023-05-05T00:12:35.502Z,15.1324
2023-05-05T00:13:36.265Z,15.1001
2023-05-05T00:14:37.172Z,15.0629
2023-05-05T00:15:38.746Z,15.0420
2023-05-05T00:16:39.243Z,15.0412
2023-05-05T00:17:40.766Z,15.0417
2023-05-05T00:18:41.986Z,15.0559
2023-05-05T00:19:43.451Z,15.1034
2023-05-05T00:20:44.544Z,15.1280
2023-05-05T00:21:46.328Z,15.1350
2023-05-05T00:22:48.255Z,15.2168
2023-05-05T00:23:51.579Z,15.2301
2023-05-05T00:24:53.664Z,15.1764
2023-05-05T00:25:55.368Z,15.1395
2023-05-05T00:26:57.407Z,15.1375
2023-05-05T00:27:57.483Z,15.1079
2023-05-05T00:28:59.433Z,15.0958
2023-05-05T00:30:32.665Z,15.0941
2023-05-05T00:31:34.034Z,15.1370
2023-05-05T00:32:37.742Z,15.1093
2023-05-05T00:33:40.119Z,15.0594
2023-05-05T00:34:42.763Z,15.0799
2023-05-05T00:35:42.996Z,15.0900
2023-05-05T00:36:43.274Z,15.0809
2023-05-05T00:38:12.497Z,15.0929
2023-05-05T00:39:14.178Z,15.0959
2023-05-05T00:40:16.615Z,15.0819
2023-05-05T00:41:19.935Z,15.1351
2023-05-05T00:42:22.370Z,15.1570
2023-05-05T00:43:23.583Z,15.1782
2023-05-05T00:44:26.355Z,15.1664
2023-05-05T00:45:29.473Z,15.0554
2023-05-05T00:46:30.708Z,15.0078
2023-05-05T00:47:33.107Z,15.0040
2023-05-05T00:48:33.198Z,15.0654
2023-05-05T00:49:35.443Z,15.0731
2023-05-05T00:50:42.045Z,15.0450
2023-05-05T00:52:08.716Z,15.0150
2023-05-05T00:53:10.974Z,15.0420
2023-05-05T00:54:12.310Z,15.0828
2023-05-05T00:55:13.588Z,15.0799
2023-05-05T00:56:17.350Z,15.0829
2023-05-05T00:57:19.393Z,15.0701
2023-05-05T00:58:19.453Z,15.0399
2023-05-05T00:59:20.268Z,15.0078
2023-05-05T01:00:21.944Z,15.0076
2023-05-05T01:01:24.651Z,14.9387
2023-05-05T01:02:28.001Z,14.8628
2023-05-05T01:03:28.755Z,14.8352
2023-05-05T01:04:30.089Z,14.8471
2023-05-05T01:05:30.926Z,14.8537
2023-05-05T01:06:34.543Z,14.9006
2023-05-05T01:07:34.890Z,14.8919
2023-05-05T01:08:35.039Z,14.8589
2023-05-05T01:09:38.147Z,14.8876
2023-05-05T01:10:42.212Z,15.0872
2023-05-05T01:11:43.168Z,15.1346
2023-05-05T01:13:11.143Z,15.3973
2023-05-05T01:14:12.955Z,15.4630
2023-05-05T01:15:15.632Z,15.3726
2023-05-05T01:16:18.112Z,15.3236
2023-05-05T01:17:18.522Z,15.1526
2023-05-05T01:18:20.757Z,15.0135
2023-05-05T01:19:25.623Z,14.7845
2023-05-05T01:20:26.397Z,14.7003
2023-05-05T01:21:56.491Z,14.5443
2023-05-05T01:23:00.234Z,14.4372
2023-05-05T01:24:00.367Z,14.3967
2023-05-05T01:25:06.568Z,14.4111
2023-05-05T01:26:34.074Z,14.4522
2023-05-05T01:27:34.865Z,14.4484
2023-05-05T01:29:03.446Z,14.4562
2023-05-05T01:30:04.112Z,14.4078
2023-05-05T01:31:36.359Z,14.2924
2023-05-05T01:32:39.685Z,14.2636
2023-05-05T01:33:40.570Z,14.2720
2023-05-05T01:34:44.403Z,14.3414
2023-05-05T01:35:45.418Z,14.3183
2023-05-05T01:36:47.985Z,14.2914
2023-05-05T01:37:49.420Z,14.3256
2023-05-05T01:38:51.324Z,14.3570
2023-05-05T01:39:51.483Z,14.3689
2023-05-05T01:40:54.155Z,14.3736
2023-05-05T01:41:56.983Z,14.4186
2023-05-05T01:43:02.595Z,14.3998
2023-05-05T01:44:02.643Z,14.3835
2023-05-05T01:45:07.910Z,14.3604
2023-05-05T01:46:10.028Z,14.3942
2023-05-05T01:47:11.455Z,14.4120
2023-05-05T01:48:15.264Z,14.3399
2023-05-05T01:49:18.956Z,14.2897
2023-05-05T01:50:20.679Z,14.2655
2023-05-05T01:51:22.327Z,14.2641
2023-05-05T01:52:25.608Z,14.3231
2023-05-05T01:53:27.620Z,14.4047
2023-05-05T01:54:27.552Z,14.4400
2023-05-05T01:55:32.077Z,14.3631
2023-05-05T01:56:35.757Z,14.3240
2023-05-05T01:57:37.865Z,14.3153
2023-05-05T01:58:41.171Z,14.3363
2023-05-05T01:59:43.315Z,14.3542
2023-05-05T02:00:43.462Z,14.3524
2023-05-05T02:02:47.074Z,14.2846
2023-05-05T02:03:49.055Z,14.1537
2023-05-05T02:04:49.165Z,14.1235
2023-05-05T02:05:49.549Z,14.0602
2023-05-05T02:06:53.282Z,14.0181
2023-05-05T02:07:55.527Z,13.9893
2023-05-05T02:08:57.776Z,14.0393
2023-05-05T02:10:01.537Z,14.0954
2023-05-05T02:11:04.083Z,14.1266
2023-05-05T02:12:32.065Z,14.4719
2023-05-05T02:14:04.586Z,14.6008
2023-05-05T02:15:09.588Z,14.6637
2023-05-05T02:16:12.965Z,14.7770
2023-05-05T02:18:42.461Z,15.1099
2023-05-05T02:19:46.302Z,15.1083
2023-05-05T02:20:48.573Z,15.1303
2023-05-05T02:21:49.223Z,15.0620
2023-05-05T02:22:49.663Z,14.8784
2023-05-05T02:23:52.802Z,14.6803
2023-05-05T02:24:55.034Z,14.6156
2023-05-05T02:26:25.029Z,14.6440
2023-05-05T02:27:29.549Z,14.7732
2023-05-05T02:28:33.254Z,14.6845
2023-05-05T02:29:37.895Z,14.4638
2023-05-05T02:30:43.458Z,14.3176
2023-05-05T02:31:43.683Z,14.1848
2023-05-05T02:32:44.567Z,14.1279
2023-05-05T02:33:48.234Z,14.0454
2023-05-05T02:34:51.342Z,13.9802
2023-05-05T02:36:50.613Z,13.8912
2023-05-05T02:37:51.016Z,13.8415
2023-05-05T02:38:52.916Z,13.8319
2023-05-05T02:39:53.936Z,13.8441
2023-05-05T02:40:54.867Z,13.8480
2023-05-05T02:46:02.058Z,13.7956
2023-05-05T02:49:06.756Z,13.8054
2023-05-05T02:50:08.566Z,13.7842
2023-05-05T02:51:12.904Z,13.7743
2023-05-05T02:52:15.277Z,13.7728
2023-05-05T03:02:07.785Z,13.7665
2023-05-05T03:03:08.889Z,13.7982
2023-05-05T03:04:13.011Z,13.8481
2023-05-05T03:05:16.714Z,13.8762
2023-05-05T03:06:20.266Z,13.8910
2023-05-05T03:07:22.619Z,13.8926
2023-05-05T03:08:24.480Z,13.8906
2023-05-05T03:09:25.530Z,13.8791
2023-05-05T03:10:28.386Z,13.8252
2023-05-05T03:11:29.235Z,13.7869
2023-05-05T03:12:30.339Z,13.7930
2023-05-05T03:13:34.710Z,13.7663
2023-05-05T03:14:37.128Z,13.7749
2023-05-05T03:15:38.874Z,13.7667
2023-05-05T03:16:40.006Z,13.8144
2023-05-05T03:17:42.154Z,13.8452
2023-05-05T03:18:47.136Z,13.7987
2023-05-05T03:19:50.435Z,13.7907
2023-05-05T03:20:54.680Z,13.7636
2023-05-05T03:21:56.882Z,13.7062
2023-05-05T03:23:02.668Z,13.6938
2023-05-05T03:24:31.082Z,13.6747
2023-05-05T03:25:32.343Z,13.6831
2023-05-05T03:26:36.038Z,13.6826
2023-05-05T03:27:36.417Z,13.6898
2023-05-05T03:30:41.160Z,13.9444
2023-05-05T03:31:44.547Z,14.0660
2023-05-05T03:32:46.808Z,14.1581
2023-05-05T03:33:47.507Z,14.1912
2023-05-05T03:46:46.671Z,14.2973
2023-05-05T03:47:47.355Z,14.3387
2023-05-05T03:52:51.919Z,14.4973
2023-05-05T03:53:52.531Z,14.5335
2023-05-05T03:55:19.478Z,14.6200
2023-05-05T03:56:22.063Z,14.6336
2023-05-05T03:57:26.280Z,14.5798
2023-05-05T03:58:31.923Z,14.4958
2023-05-05T03:59:32.378Z,14.4426
2023-05-05T04:30:21.609Z,13.8631
2023-05-05T04:31:26.619Z,13.8858
2023-05-05T04:40:49.442Z,14.0395
2023-05-05T04:41:57.088Z,14.0032
2023-05-05T04:43:00.515Z,14.0077
2023-05-05T04:44:11.359Z,13.9813
2023-05-05T04:52:47.827Z,13.7562
2023-05-05T04:53:49.691Z,13.7036
2023-05-05T04:54:52.635Z,13.6918
2023-05-05T04:55:56.772Z,13.6813
2023-05-05T05:01:58.255Z,13.8057
2023-05-05T05:03:00.106Z,13.8338
2023-05-05T05:08:26.469Z,14.1602
2023-05-05T05:13:29.089Z,13.7496
2023-05-05T05:14:32.892Z,13.7125
2023-05-05T05:15:36.648Z,13.6791
2023-05-05T05:16:38.199Z,13.6544
2023-05-05T05:17:40.378Z,13.6082
2023-05-05T05:18:40.687Z,13.6015
2023-05-05T05:19:40.856Z,13.5803
2023-05-05T05:43:12.515Z,13.9966
2023-05-05T05:44:14.743Z,14.0085
2023-05-05T05:45:17.119Z,14.0365
2023-05-05T05:46:17.497Z,14.0604
2023-05-05T05:59:18.911Z,14.5890
2023-05-05T06:00:19.585Z,14.6191
2023-05-05T06:01:20.829Z,14.6356
2023-05-05T06:02:25.867Z,14.6356
2023-05-05T06:03:29.459Z,14.6780
2023-05-05T06:08:41.185Z,14.8100
2023-05-05T06:09:43.203Z,14.8339
2023-05-05T06:10:43.675Z,14.8809
2023-05-05T06:11:44.547Z,14.9292
2023-05-05T06:13:14.133Z,14.9349
2023-05-05T06:14:19.554Z,14.9759
2023-05-05T06:15:22.456Z,15.0210
2023-05-05T06:30:50.592Z,15.9330
2023-05-05T06:32:24.119Z,15.9731
2023-05-05T06:33:51.925Z,16.0782
2023-05-05T06:34:54.029Z,16.0497
2023-05-05T06:35:56.823Z,15.9921
2023-05-05T06:37:56.113Z,16.0847
2023-05-05T06:45:09.329Z,16.3695
2023-05-05T06:46:37.395Z,16.5150
2023-05-05T06:48:08.062Z,16.5171
2023-05-05T06:49:10.626Z,16.5987
2023-05-05T06:50:38.626Z,16.4193
2023-05-05T06:51:42.163Z,16.3370
2023-05-05T06:53:10.485Z,16.4603
2023-05-05T06:54:43.764Z,16.7097
2023-05-05T06:56:12.162Z,16.8744
2023-05-05T06:57:40.951Z,16.8568
2023-05-05T06:59:09.775Z,16.8399
2023-05-05T07:00:40.691Z,16.8086
2023-05-05T07:02:09.397Z,16.9040
2023-05-05T07:03:40.899Z,17.1394
2023-05-05T07:04:44.186Z,17.1914
2023-05-05T07:06:14.391Z,17.2162
2023-05-05T07:07:43.707Z,17.3791
2023-05-05T07:09:16.936Z,17.6549
2023-05-05T07:10:16.194Z,17.7340
2023-05-05T07:11:49.168Z,17.7416
2023-05-05T07:13:49.577Z,17.8283
2023-05-05T07:15:27.450Z,17.6730
2023-05-05T07:16:50.100Z,17.6059
2023-05-05T07:18:21.387Z,17.7434
2023-05-05T07:19:51.716Z,17.6564
2023-05-05T07:21:20.609Z,17.8580
2023-05-05T07:22:22.208Z,17.7086
2023-05-05T07:23:52.170Z,17.7905
2023-05-05T07:25:20.991Z,17.9213
2023-05-05T07:26:52.377Z,18.1823
2023-05-05T07:28:23.114Z,18.0821
2023-05-05T07:29:53.768Z,18.0685
2023-05-05T07:30:54.699Z,18.0554
2023-05-05T07:32:25.050Z,18.0678
2023-05-05T07:33:56.993Z,17.7153
2023-05-05T07:35:28.670Z,17.8727
2023-05-05T07:36:57.888Z,17.7898
2023-05-05T07:38:27.904Z,17.8090
2023-05-05T07:39:58.330Z,17.7730
2023-05-05T07:41:27.350Z,17.7691
2023-05-05T07:42:58.305Z,17.8190
2023-05-05T07:45:29.334Z,17.8552
2023-05-05T07:47:01.783Z,17.7878
2023-05-05T07:48:32.285Z,17.8700
2023-05-05T07:50:03.439Z,17.8097
2023-05-05T07:51:34.979Z,17.8935
2023-05-05T07:53:13.610Z,17.8898
2023-05-05T07:54:05.902Z,17.9286
2023-05-05T07:55:37.676Z,17.9347
2023-05-05T07:57:07.778Z,17.8718
2023-05-05T07:58:38.936Z,17.8660
2023-05-05T08:00:11.124Z,17.9366
2023-05-05T08:01:42.421Z,17.8549
2023-05-05T08:03:12.877Z,17.8645
2023-05-05T08:04:45.087Z,18.0659
2023-05-05T08:06:15.460Z,18.1497
2023-05-05T08:07:47.331Z,18.0331
2023-05-05T08:09:16.331Z,18.0461
2023-05-05T08:10:47.712Z,18.0819
2023-05-05T08:12:16.546Z,18.0735
2023-05-05T08:13:46.209Z,18.1602
2023-05-05T08:15:17.490Z,17.9586
2023-05-05T08:16:49.284Z,17.8901
2023-05-05T08:18:19.998Z,18.0441
2023-05-05T08:19:48.948Z,18.2028
2023-05-05T08:21:51.800Z,18.2683
2023-05-05T08:24:56.024Z,18.4463
2023-05-05T08:26:57.656Z,18.3875
2023-05-05T08:28:29.185Z,18.4281
2023-05-05T08:30:01.280Z,18.4851
2023-05-05T08:31:31.043Z,18.4860
2023-05-05T08:33:03.589Z,18.6126
2023-05-05T08:34:33.428Z,18.7461
2023-05-05T08:35:35.175Z,18.7316
2023-05-05T08:37:05.644Z,18.7573
2023-05-05T08:38:36.044Z,18.8861
2023-05-05T08:40:08.924Z,18.9988
2023-05-05T08:41:39.195Z,18.8139
2023-05-05T08:42:39.831Z,18.7734
2023-05-05T08:43:42.950Z,18.8724
2023-05-05T08:45:14.354Z,19.1292
2023-05-05T08:46:44.922Z,19.1931
2023-05-05T08:48:13.834Z,19.0734
2023-05-05T08:49:43.608Z,19.2170
2023-05-05T08:51:16.097Z,19.1199
2023-05-05T08:52:48.087Z,19.3639
2023-05-05T08:54:17.779Z,19.2502
2023-05-05T08:55:48.403Z,19.4678
2023-05-05T08:57:19.403Z,19.2253
2023-05-05T08:58:50.687Z,19.2794
2023-05-05T09:00:19.953Z,19.3472
2023-05-05T09:01:50.721Z,19.2874
2023-05-05T09:03:22.084Z,19.2316
2023-05-05T09:04:51.920Z,19.4101
2023-05-05T09:06:21.676Z,19.2189
2023-05-05T09:07:52.273Z,19.0407
2023-05-05T09:09:22.030Z,19.1373
2023-05-05T09:10:51.812Z,19.1762
2023-05-05T09:12:22.142Z,19.4508
2023-05-05T09:13:53.407Z,19.3730
2023-05-05T09:15:24.785Z,19.1199
2023-05-05T09:16:56.072Z,19.4821
2023-05-05T09:18:26.262Z,19.7116
2023-05-05T09:19:56.070Z,19.7900
2023-05-05T09:21:26.799Z,19.7044
2023-05-05T09:22:58.260Z,19.8334
2023-05-05T09:24:30.257Z,19.5352
2023-05-05T09:26:00.717Z,19.3520
2023-05-05T09:27:30.723Z,19.6386
2023-05-05T09:29:00.974Z,19.8169
2023-05-05T09:30:32.265Z,19.8007
2023-05-05T09:32:03.088Z,19.7481
2023-05-05T09:33:34.693Z,19.6800
2023-05-05T09:35:05.033Z,19.5585
2023-05-05T09:36:34.348Z,19.7245
2023-05-05T09:38:05.907Z,19.8399
2023-05-05T09:39:36.726Z,19.8540
2023-05-05T09:41:08.268Z,19.7908
2023-05-05T09:42:38.889Z,19.7107
2023-05-05T09:44:09.669Z,19.9648
2023-05-05T09:45:41.366Z,19.9204
2023-05-05T09:47:25.981Z,20.0675
2023-05-05T09:48:43.423Z,20.2305
2023-05-05T09:50:13.764Z,20.0507
2023-05-05T09:51:43.831Z,19.9215
2023-05-05T09:53:13.168Z,20.1801
2023-05-05T09:54:43.516Z,20.3195
2023-05-05T09:56:12.844Z,20.4524
2023-05-05T09:57:43.147Z,20.4492
2023-05-05T09:59:12.901Z,20.3894
2023-05-05T10:00:43.253Z,20.6340
2023-05-05T10:02:13.606Z,20.7698
2023-05-05T10:03:43.985Z,20.6140
2023-05-05T10:05:14.364Z,20.1707
2023-05-05T10:06:43.515Z,20.4161
2023-05-05T10:08:13.875Z,20.8012
2023-05-05T10:09:44.171Z,20.5529
2023-05-05T10:11:13.474Z,20.7764
2023-05-05T10:12:43.782Z,20.7935
2023-05-05T10:14:14.535Z,20.8880
2023-05-05T10:15:45.852Z,20.8309
2023-05-05T10:17:16.265Z,20.6057
2023-05-05T10:18:45.535Z,20.7318
2023-05-05T10:20:14.799Z,20.7423
2023-05-05T10:21:44.065Z,20.8088
2023-05-05T10:23:13.894Z,20.8921
2023-05-05T10:24:45.407Z,20.8973
2023-05-05T10:26:15.219Z,21.2707
2023-05-05T10:27:44.875Z,21.1110
2023-05-05T10:29:15.626Z,21.3020
2023-05-05T10:30:45.004Z,21.2457
2023-05-05T10:32:40.798Z,21.3648
2023-05-05T10:33:45.074Z,21.2443
2023-05-05T10:35:14.710Z,21.1663
2023-05-05T10:36:44.993Z,21.2411
2023-05-05T10:38:15.724Z,21.1708
2023-05-05T10:39:45.027Z,21.1636
2023-05-05T10:41:14.360Z,21.1961
2023-05-05T10:42:43.745Z,21.0188
2023-05-05T10:44:12.945Z,20.8672
2023-05-05T10:45:43.588Z,20.7565
2023-05-05T10:47:14.247Z,20.8901
2023-05-05T10:48:45.739Z,20.8994
2023-05-05T10:50:14.561Z,20.9344
2023-05-05T10:51:43.886Z,21.1030
2023-05-05T10:53:15.198Z,21.1584
2023-05-05T10:54:45.885Z,20.9671
2023-05-05T10:56:16.724Z,21.1500
2023-05-05T10:57:47.904Z,20.8321
2023-05-05T10:59:18.184Z,20.8738
2023-05-05T11:00:47.539Z,21.1147
2023-05-05T11:02:16.865Z,21.5038
2023-05-05T11:03:47.396Z,21.6263
2023-05-05T11:05:18.804Z,21.3287
2023-05-05T11:06:49.156Z,21.4154
2023-05-05T11:08:18.521Z,21.3777
2023-05-05T11:09:48.311Z,21.5965
2023-05-05T11:11:18.559Z,21.5753
2023-05-05T11:12:48.352Z,21.2328
2023-05-05T11:14:17.667Z,21.3998
2023-05-05T11:15:48.817Z,21.7257
2023-05-05T11:17:18.175Z,22.1328
2023-05-05T11:18:47.595Z,22.5819
2023-05-05T11:20:17.020Z,22.8815
2023-05-05T11:21:46.716Z,23.1925
2023-05-05T11:23:16.772Z,23.1774
2023-05-05T11:24:45.241Z,23.4291
2023-05-05T11:26:14.456Z,24.2599
2023-05-05T11:27:43.644Z,23.4307
2023-05-05T11:29:13.884Z,24.1718
2023-05-05T11:30:44.140Z,24.2992
2023-05-05T11:32:13.647Z,24.3907
2023-05-05T11:33:15.605Z,24.4796
2023-05-05T11:34:45.703Z,24.1117
2023-05-05T11:36:15.794Z,24.1814
2023-05-05T11:37:44.900Z,24.4225
2023-05-05T11:39:13.998Z,25.6479
2023-05-05T11:40:43.019Z,25.5909
2023-05-05T11:42:13.071Z,24.4947
2023-05-05T11:43:43.212Z,23.4744
2023-05-05T11:44:44.605Z,23.5855
2023-05-05T11:46:16.236Z,24.7364
2023-05-05T11:47:44.832Z,24.6802
2023-05-05T11:49:13.812Z,24.9368
2023-05-05T11:50:43.349Z,24.8887
2023-05-05T11:52:12.432Z,24.4550
2023-05-05T11:53:41.437Z,25.0650
2023-05-05T11:55:10.496Z,25.3201
2023-05-05T11:56:41.544Z,24.7622
2023-05-05T11:58:10.586Z,24.3573
2023-05-05T11:59:40.626Z,24.2410
2023-05-05T12:01:10.724Z,23.4224
2023-05-05T12:02:40.065Z,23.0148
2023-05-05T12:04:10.104Z,22.9191
2023-05-05T12:05:38.961Z,22.9179
2023-05-05T12:07:09.101Z,23.3882
2023-05-05T12:08:39.224Z,23.9261
2023-05-05T12:10:08.631Z,24.0636
2023-05-05T12:11:37.407Z,24.3033
2023-05-05T12:13:06.563Z,24.8241
2023-05-05T12:14:36.599Z,24.9909
2023-05-05T12:16:06.754Z,24.3768
2023-05-05T12:17:36.713Z,24.5024
2023-05-05T12:19:05.741Z,24.3456
2023-05-05T12:20:35.642Z,23.6556
2023-05-05T12:22:04.683Z,24.3536
2023-05-05T12:23:33.626Z,24.6678
2023-05-05T12:25:03.604Z,24.8273
2023-05-05T12:26:32.588Z,25.0696
2023-05-05T12:28:01.494Z,24.6213
2023-05-05T12:29:31.488Z,24.6873
2023-05-05T12:31:01.629Z,24.6687
2023-05-05T12:32:31.569Z,24.8990
2023-05-05T12:34:01.624Z,25.4228
2023-05-05T12:35:31.795Z,25.9886
2023-05-05T12:37:01.611Z,25.1725
2023-05-05T12:38:31.607Z,25.7453
2023-05-05T12:40:00.496Z,25.2943
2023-05-05T12:41:29.434Z,25.5226
2023-05-05T12:42:59.364Z,25.7551
2023-05-05T12:44:28.821Z,25.4230
2023-05-05T12:45:58.885Z,25.1538
2023-05-05T12:47:29.314Z,25.7541
2023-05-05T12:48:59.754Z,25.9701
2023-05-05T12:50:28.654Z,26.3144
2023-05-05T12:51:57.639Z,25.8082
2023-05-05T12:53:27.485Z,25.7535
2023-05-05T12:54:57.376Z,26.3162
2023-05-05T12:56:26.272Z,26.1706
2023-05-05T12:57:56.184Z,26.7052
2023-05-05T12:59:26.083Z,27.2551
2023-05-05T13:00:56.459Z,27.8236
2023-05-05T13:02:25.262Z,26.5837
2023-05-05T13:03:54.126Z,27.2167
2023-05-05T13:05:23.028Z,27.8148
2023-05-05T13:06:53.512Z,29.2316
2023-05-05T13:08:20.736Z,27.6889
2023-05-05T13:09:50.565Z,27.4181
2023-05-05T13:11:19.376Z,28.3419
2023-05-05T13:12:48.186Z,29.0846
2023-05-05T13:14:17.010Z,29.1785
2023-05-05T13:15:46.846Z,27.6555
2023-05-05T13:17:15.634Z,26.1524
2023-05-05T13:18:45.487Z,25.7814
2023-05-05T13:20:15.373Z,24.8355
2023-05-05T13:21:44.252Z,25.6579
2023-05-05T13:23:13.148Z,25.0178
2023-05-05T13:24:50.605Z,25.2722
2023-05-05T13:26:11.963Z,25.2310
2023-05-05T13:27:40.921Z,25.4353
2023-05-05T13:29:09.860Z,25.9604
2023-05-05T13:30:38.746Z,27.2987
2023-05-05T13:32:07.623Z,26.4816
2023-05-05T13:33:36.480Z,26.6304
2023-05-05T13:35:05.418Z,27.2652
2023-05-05T13:36:35.275Z,27.7504
2023-05-05T13:38:05.219Z,26.9628
2023-05-05T13:39:35.086Z,25.8067
2023-05-05T13:41:05.155Z,25.1985
2023-05-05T13:42:33.978Z,24.8864
2023-05-05T13:44:03.916Z,24.5897
2023-05-05T13:45:33.895Z,24.2971
2023-05-05T13:47:03.915Z,23.7565
2023-05-05T13:48:32.864Z,23.9612
2023-05-05T13:50:01.907Z,24.1835
2023-05-05T13:51:31.852Z,24.2483
2023-05-05T13:53:00.894Z,24.1189
2023-05-05T13:54:29.859Z,24.1246
2023-05-05T13:55:58.967Z,24.4305
2023-05-05T13:57:30.145Z,24.2901
2023-05-05T13:59:00.104Z,24.2406
2023-05-05T14:00:29.197Z,24.4704
2023-05-05T14:01:58.146Z,24.3818
2023-05-05T14:03:27.162Z,24.3149
2023-05-05T14:04:56.997Z,24.0207
2023-05-05T14:06:26.424Z,23.7475
2023-05-05T14:07:56.430Z,23.5513
2023-05-05T14:09:25.597Z,23.3919
2023-05-05T14:10:55.727Z,23.5365
2023-05-05T14:12:25.827Z,23.6528
2023-05-05T14:13:55.995Z,23.4336
2023-05-05T14:15:25.851Z,23.2318
2023-05-05T14:16:55.784Z,23.1579
2023-05-05T14:18:25.503Z,23.3965
2023-05-05T14:19:56.396Z,23.3997
2023-05-05T14:21:25.799Z,23.1729
2023-05-05T14:22:54.980Z,23.0128
2023-05-05T14:24:25.425Z,22.9864
2023-05-05T14:25:54.569Z,22.8893
2023-05-05T14:27:23.833Z,22.8085
2023-05-05T14:28:53.585Z,22.8109
2023-05-05T14:30:22.935Z,22.9019
2023-05-05T14:31:52.357Z,22.8507
2023-05-05T14:33:21.602Z,22.8005
2023-05-05T14:34:50.856Z,22.8093
2023-05-05T14:36:21.104Z,22.8526
2023-05-05T14:37:50.353Z,22.8642
2023-05-05T14:39:19.504Z,22.8292
2023-05-05T14:40:48.688Z,22.8621
2023-05-05T14:42:17.946Z,22.8971
2023-05-05T14:43:47.138Z,22.8461
2023-05-05T14:45:17.417Z,22.7992
2023-05-05T14:46:48.551Z,22.8452
2023-05-05T14:48:16.918Z,22.7630
2023-05-05T14:49:47.209Z,22.6173
2023-05-05T14:51:16.873Z,22.5986
2023-05-05T14:52:46.133Z,22.4783
2023-05-05T14:54:26.935Z,22.4280
2023-05-05T14:55:47.006Z,22.4079
2023-05-05T14:57:18.079Z,22.4052
2023-05-05T14:58:49.471Z,22.3546
2023-05-05T15:00:18.246Z,22.3083
2023-05-05T15:01:47.649Z,22.2065
2023-05-05T15:03:18.686Z,22.1279
2023-05-05T15:04:50.337Z,22.1656
2023-05-05T15:06:19.743Z,22.0615
2023-05-05T15:07:51.355Z,22.0472
2023-05-05T15:09:21.056Z,22.0647
2023-05-05T15:10:52.158Z,21.9925
2023-05-05T15:12:21.993Z,21.9238
2023-05-05T15:13:53.570Z,21.9497
2023-05-05T15:15:23.117Z,21.9093
2023-05-05T15:16:53.130Z,21.8958
2023-05-05T15:18:21.990Z,21.8397
2023-05-05T15:19:53.308Z,21.8297
2023-05-05T15:21:23.334Z,21.7106
2023-05-05T15:22:54.328Z,21.6192
2023-05-05T15:24:25.133Z,21.5063
2023-05-05T15:25:54.959Z,21.3431
2023-05-05T15:27:25.281Z,20.7674
2023-05-05T15:28:54.649Z,19.8638
2023-05-05T15:30:25.541Z,19.3159
2023-05-05T15:31:56.865Z,19.1928
2023-05-05T15:33:29.053Z,18.8692
2023-05-05T15:35:00.570Z,18.4802
2023-05-05T15:36:29.399Z,18.3908
2023-05-05T15:37:59.406Z,17.9417
2023-05-05T15:39:29.667Z,17.3298
2023-05-05T15:40:31.871Z,16.9790
2023-05-05T15:41:34.535Z,16.7462
2023-05-05T15:42:35.726Z,16.6879
2023-05-05T15:44:07.932Z,16.6135
2023-05-05T15:49:17.992Z,16.6717
2023-05-05T15:50:45.976Z,16.7629
2023-05-05T15:52:14.778Z,16.8000
2023-05-05T16:10:55.818Z,17.9507
2023-05-05T16:11:58.930Z,18.0745
2023-05-05T16:13:29.769Z,18.0570
2023-05-05T16:14:59.909Z,18.3224
2023-05-05T16:16:32.297Z,18.3669
2023-05-05T16:18:01.543Z,18.4190
2023-05-05T16:19:32.546Z,18.0881
2023-05-05T16:21:03.126Z,17.7627
2023-05-05T16:22:05.744Z,17.8293
2023-05-05T16:23:35.737Z,17.8978
2023-05-05T16:25:04.953Z,17.7332
2023-05-05T16:26:08.485Z,17.5045
2023-05-05T16:27:37.111Z,17.3006
2023-05-05T16:28:39.526Z,17.2908
2023-05-05T16:30:09.576Z,17.1873
2023-05-05T16:31:38.191Z,17.3949
2023-05-05T16:33:07.137Z,17.3579
2023-05-05T16:34:39.062Z,17.4617
2023-05-05T16:36:08.215Z,17.4017
2023-05-05T16:37:40.375Z,17.3567
2023-05-05T16:39:11.102Z,17.3520
2023-05-05T16:40:39.836Z,17.3052
2023-05-05T16:41:41.513Z,17.0352
2023-05-05T16:43:14.250Z,17.1447
2023-05-05T16:44:46.707Z,17.0457
2023-05-05T16:46:15.635Z,17.0362
2023-05-05T16:47:46.080Z,17.0065
2023-05-05T16:49:15.885Z,16.9680
2023-05-05T16:50:18.755Z,16.9895
2023-05-05T16:51:48.330Z,16.9491
2023-05-05T16:52:49.342Z,16.9418
2023-05-05T16:53:51.663Z,16.8747
2023-05-05T16:55:23.280Z,16.8839
2023-05-05T16:56:56.989Z,16.8598
2023-05-05T16:58:24.185Z,16.7611
2023-05-05T16:59:54.267Z,16.7951
2023-05-05T17:01:25.731Z,16.6497
2023-05-05T17:02:57.057Z,16.6011
2023-05-05T17:04:27.793Z,16.5797
2023-05-05T17:05:58.566Z,16.5648
2023-05-05T17:07:02.276Z,16.5798
2023-05-05T17:08:33.752Z,16.4591
2023-05-05T17:09:35.679Z,16.4977
2023-05-05T17:11:05.376Z,16.4954
2023-05-05T17:12:08.507Z,16.4905
2023-05-05T17:13:08.828Z,16.4827
2023-05-05T17:14:13.193Z,16.4182
2023-05-05T17:27:38.330Z,16.4831
2023-05-05T17:28:38.287Z,16.5282
2023-05-05T17:31:10.408Z,16.5730
2023-05-05T17:41:30.768Z,16.7036
2023-05-05T17:45:07.540Z,16.6256
2023-05-05T17:52:55.416Z,16.5077
2023-05-05T17:57:32.654Z,16.3132
